Santa Fe Municipal Airport
KSAF : rendu visible

Aérodrome :











RETROUVEZ-NOUS SUR...

 
LOGIN :

S'inscrire | Disclaimer

   EN    FR    IT 

 









Légende :    VFR   VFR Marginal   IFR   IFR Intensif   IFR Très Intensif
Visi : 
Plafond : 
>= 8 km
>= 3000ft
5 à 8 km
1000 à 3000 ft
1500m à 5 km
500 à 1000 ft
800 à 1500m
200 à 500 ft
< 800m
< 200 ft
Symboles :   Orages  Brouillard  Fortes neiges  Fortes précipitations  Vent > 20 kt






- Altitude de l'aérodrome : 6348 ft


KSAF - Santa Fe Municipal

DERNIER METAR :
  • 041853Z VRB05KT 10SM CLR 06/M12 A3027 RMK AO2 SLP258 T00611122

METARs EXPIRÉS :
  • 041753Z 02007KT 10SM CLR 03/M12 A3030 RMK AO2 SLP275 T00331117 10033 21083 50003
  • 041653Z 02008KT 10SM CLR 01/M12 A3031 RMK AO2 SLP282 T00111117

TAF KSAF
Valide du 04 à 18h jusqu'au 05 à 18h UTC


041725Z 0418/0518 36011KT P6SM SKC
FM042200 32006KT P6SM SKC
FM050400 01008KT P6SM SKC
FM051300 36012KT P6SM SKC
FIR KZAB / Amérique du Nord



MET'MAP, la Météo Aéronautique d'un coup d'oeil ! - Copyright ORBIFLY Décembre 2007 - Disclaimer

ORBIFLY MET'MAP TEAM :

Programmation & Développement : Alexandra Zaïnal
Sur une idée originale de : Baudouin d'Aumeries
Assistance à la programmation : Marc-Olivier Méhu
Soutien technique & logistique : Manuel Goepfert

Contact : metmap@orbifly.com




SOURCES & CREDITS :

   NOAA       Earth
Advisory